Time;durP1;ratioP1;P1;durP2;ratioP2;P2;SDS_P1;SDS_P2;PMS_P1;PMS_P2;Temp;Humidity;BMP_temperature;BMP_pressure;BME280_temperature;BME280_humidity;BME280_pressure;Samples;Min_cycle;Max_cycle;Signal;HPM_P1;HPM_P2
2022/01/25 00:08:41;;;;;;;22.60;12.32;;;2.50;90.20;;;;;;5026716;28;20617;-66
2022/01/25 00:25:10;;;;;;;22.60;14.00;;;2.50;89.10;;;;;;5028734;28;20206;-66
2022/01/25 00:27:48;;;;;;;17.77;11.43;;;2.50;89.40;;;;;;5028017;28;20624;-68
2022/01/25 00:30:41;;;;;;;23.65;13.02;;;2.60;89.60;;;;;;5028449;28;20237;-67
2022/01/25 00:33:11;;;;;;;22.30;13.77;;;2.60;89.50;;;;;;5027752;28;20849;-66
2022/01/25 00:35:38;;;;;;;21.95;12.85;;;2.60;89.20;;;;;;5028262;28;20282;-65
2022/01/25 00:38:05;;;;;;;22.33;13.95;;;2.60;89.30;;;;;;5027462;28;20286;-66
2022/01/25 00:40:33;;;;;;;23.52;12.88;;;2.60;89.10;;;;;;5027446;28;20657;-66
2022/01/25 00:43:00;;;;;;;22.95;11.57;;;2.60;88.30;;;;;;5027696;28;20312;-66
2022/01/25 00:45:29;;;;;;;20.13;12.48;;;2.60;88.10;;;;;;5028325;28;20210;-66
2022/01/25 00:47:56;;;;;;;19.23;11.68;;;2.60;88.20;;;;;;5027803;28;20187;-66
2022/01/25 00:50:31;;;;;;;21.25;11.02;;;2.60;88.80;;;;;;5028072;28;20214;-66
2022/01/25 00:55:43;;;;;;;21.58;11.90;;;2.60;87.90;;;;;;5028153;28;20283;-66
2022/01/25 00:58:10;;;;;;;23.98;13.25;;;2.60;88.10;;;;;;5027836;28;20282;-66
2022/01/25 01:00:38;;;;;;;20.48;11.55;;;2.50;88.10;;;;;;5027846;28;20299;-66
2022/01/25 01:03:05;;;;;;;19.60;12.32;;;2.50;87.80;;;;;;5027595;28;20248;-65
2022/01/25 01:05:34;;;;;;;19.42;11.80;;;2.50;88.00;;;;;;5027882;28;20200;-66
2022/01/25 01:08:04;;;;;;;20.55;10.07;;;2.50;87.70;;;;;;5027854;28;20202;-66
2022/01/25 01:10:32;;;;;;;17.67;11.25;;;2.50;87.50;;;;;;5027589;28;20214;-66
2022/01/25 01:15:51;;;;;;;21.33;11.63;;;2.50;87.40;;;;;;5025273;28;20215;-67
2022/01/25 01:29:49;;;;;;;20.60;9.98;;;2.30;87.10;;;;;;5027322;28;20214;-66
2022/01/25 01:32:41;;;;;;;20.55;10.55;;;2.20;86.80;;;;;;5025963;28;20199;-66
2022/01/25 01:38:22;;;;;;;19.65;10.95;;;2.10;87.10;;;;;;5029065;28;20283;-66
2022/01/25 01:41:07;;;;;;;18.05;10.63;;;2.10;87.50;;;;;;5027429;28;20279;-65
2022/01/25 01:43:36;;;;;;;19.67;9.75;;;2.10;87.80;;;;;;5024712;28;20299;-66
2022/01/25 01:46:21;;;;;;;18.90;10.63;;;2.10;88.00;;;;;;5027135;28;20239;-65
2022/01/25 01:48:55;;;;;;;20.45;11.25;;;2.10;88.10;;;;;;5026141;28;20627;-66
2022/01/25 01:51:29;;;;;;;21.85;10.40;;;2.10;87.60;;;;;;5030825;28;20286;-66
2022/01/25 01:53:59;;;;;;;20.35;10.93;;;2.10;87.30;;;;;;5030359;28;20303;-66
2022/01/25 01:56:27;;;;;;;24.45;11.73;;;2.10;87.50;;;;;;5036215;28;20336;-66
2022/01/25 01:59:00;;;;;;;16.70;9.32;;;2.10;87.40;;;;;;5030242;28;20191;-66
2022/01/25 02:01:29;;;;;;;21.67;10.07;;;2.10;87.30;;;;;;5030441;28;20195;-66
2022/01/25 02:04:00;;;;;;;20.20;11.52;;;2.00;87.20;;;;;;5029109;28;20530;-66
2022/01/25 02:06:27;;;;;;;21.30;10.65;;;2.00;87.90;;;;;;5030008;28;20268;-67
2022/01/25 02:08:57;;;;;;;22.33;12.35;;;1.90;87.70;;;;;;5030267;28;20246;-66
2022/01/25 02:11:24;;;;;;;15.27;9.15;;;1.90;87.90;;;;;;5030378;28;20206;-65
2022/01/25 02:13:52;;;;;;;27.52;10.45;;;1.80;87.30;;;;;;5029742;28;20627;-66
2022/01/25 02:16:36;;;;;;;17.17;9.18;;;1.70;86.20;;;;;;5030186;28;20650;-66
2022/01/25 02:24:43;;;;;;;17.65;10.00;;;1.40;86.80;;;;;;5029917;28;20201;-65
2022/01/25 02:27:10;;;;;;;18.65;10.95;;;1.30;86.90;;;;;;5029985;28;20245;-66
2022/01/25 02:29:40;;;;;;;20.45;8.90;;;1.30;87.70;;;;;;5029998;28;20204;-66
2022/01/25 02:32:13;;;;;;;17.80;9.07;;;1.20;88.10;;;;;;5029258;28;20287;-65
2022/01/25 02:34:41;;;;;;;15.95;10.70;;;1.10;89.10;;;;;;5029486;28;20234;-65
2022/01/25 02:37:13;;;;;;;18.70;10.05;;;1.10;89.50;;;;;;5029867;28;20222;-66
2022/01/25 02:39:42;;;;;;;21.95;10.07;;;1.10;89.80;;;;;;5029519;28;20196;-66
2022/01/25 02:42:11;;;;;;;22.45;11.25;;;1.10;90.10;;;;;;5029669;28;20632;-65
2022/01/25 02:44:38;;;;;;;19.27;10.73;;;1.10;90.20;;;;;;5029320;28;20295;-67
2022/01/25 02:50:01;;;;;;;23.15;11.50;;;1.20;90.10;;;;;;5005316;28;20256;-65
2022/01/25 02:52:30;;;;;;;15.48;10.13;;;1.10;90.30;;;;;;5029335;28;20201;-69
2022/01/25 02:54:57;;;;;;;27.38;9.88;;;1.20;90.30;;;;;;5029365;28;20219;-65
2022/01/25 02:57:25;;;;;;;21.08;10.60;;;1.20;90.30;;;;;;5029626;28;20214;-66
2022/01/25 02:59:53;;;;;;;20.10;10.52;;;1.30;90.20;;;;;;5029262;28;20195;-66
2022/01/25 03:02:20;;;;;;;22.27;9.85;;;1.30;90.10;;;;;;5029068;28;20200;-66
2022/01/25 03:04:48;;;;;;;20.52;10.30;;;1.20;90.10;;;;;;5028525;28;20624;-66
2022/01/25 03:07:15;;;;;;;18.00;9.48;;;1.20;90.20;;;;;;5029256;28;20235;-66
2022/01/25 03:09:44;;;;;;;17.27;10.32;;;1.30;90.10;;;;;;5029024;28;20276;-66
2022/01/25 03:12:17;;;;;;;24.70;9.27;;;1.20;90.30;;;;;;5029253;28;20229;-66
2022/01/25 03:15:11;;;;;;;29.45;11.23;;;1.20;90.30;;;;;;5028851;28;20227;-66
2022/01/25 03:17:45;;;;;;;32.88;10.02;;;1.20;90.30;;;;;;5029121;28;20557;-66
2022/01/25 03:20:19;;;;;;;42.25;11.45;;;1.10;90.40;;;;;;5029525;28;20546;-66
2022/01/25 03:22:58;;;;;;;23.08;10.23;;;1.00;90.50;;;;;;5028713;28;20183;-66
2022/01/25 03:25:28;;;;;;;23.88;9.38;;;1.00;90.80;;;;;;5028648;28;20195;-66
2022/01/25 03:27:57;;;;;;;24.20;10.20;;;0.90;90.80;;;;;;5028212;28;20675;-66
2022/01/25 03:30:25;;;;;;;28.38;10.05;;;0.80;91.00;;;;;;5028872;28;20589;-66
2022/01/25 03:32:52;;;;;;;23.08;10.18;;;0.80;91.30;;;;;;5028200;28;20780;-66
2022/01/25 03:35:20;;;;;;;21.05;9.60;;;0.80;91.30;;;;;;5028457;28;20544;-65
2022/01/25 03:37:47;;;;;;;14.75;8.20;;;0.80;91.20;;;;;;5028986;28;20207;-66
2022/01/25 03:40:14;;;;;;;16.85;8.80;;;0.80;91.10;;;;;;5028718;28;20201;-65
2022/01/25 03:42:48;;;;;;;19.20;9.85;;;0.70;91.10;;;;;;5028609;28;20221;-65
2022/01/25 03:45:20;;;;;;;20.63;8.85;;;0.70;91.10;;;;;;5028421;28;20187;-66
2022/01/25 03:48:00;;;;;;;17.92;8.95;;;0.70;91.30;;;;;;5028408;28;20227;-65
2022/01/25 03:50:27;;;;;;;28.63;9.45;;;0.60;91.10;;;;;;5028279;28;20217;-66
2022/01/25 03:52:55;;;;;;;19.65;8.80;;;0.70;91.30;;;;;;5027763;28;20283;-65
2022/01/25 03:55:22;;;;;;;30.00;9.70;;;0.70;91.20;;;;;;5027982;28;20223;-66
2022/01/25 03:57:51;;;;;;;20.30;9.60;;;0.70;91.30;;;;;;5028507;28;20653;-66
2022/01/25 04:00:19;;;;;;;13.30;8.43;;;0.70;91.40;;;;;;5028153;28;20283;-66
2022/01/25 04:02:52;;;;;;;16.80;8.30;;;0.80;91.30;;;;;;5028391;28;20234;-66
2022/01/25 04:05:24;;;;;;;24.80;9.63;;;0.80;90.60;;;;;;5028194;28;20198;-66
2022/01/25 04:08:03;;;;;;;17.67;8.77;;;0.80;90.80;;;;;;5028474;28;20290;-68
2022/01/25 04:10:36;;;;;;;22.30;9.55;;;0.70;90.60;;;;;;5024722;28;20199;-65
2022/01/25 04:13:08;;;;;;;20.45;9.15;;;0.70;90.80;;;;;;5024021;28;20718;-66
2022/01/25 04:15:53;;;;;;;16.85;9.10;;;0.70;90.80;;;;;;5027672;28;20220;-65
2022/01/25 04:18:30;;;;;;;15.20;8.30;;;0.60;91.00;;;;;;5028501;28;20203;-66
2022/01/25 04:21:13;;;;;;;24.95;10.13;;;0.70;91.40;;;;;;5027725;28;20579;-66
2022/01/25 04:26:33;;;;;;;37.08;12.23;;;0.70;91.30;;;;;;5027976;28;20740;-66
2022/01/25 04:29:02;;;;;;;24.73;9.32;;;0.70;91.30;;;;;;5028246;28;20560;-65
2022/01/25 04:31:34;;;;;;;28.52;11.18;;;0.70;91.40;;;;;;5027153;28;20196;-66
2022/01/25 04:34:11;;;;;;;18.30;9.10;;;0.70;91.60;;;;;;5027960;28;20288;-65
2022/01/25 04:50:44;;;;;;;26.27;10.45;;;0.90;91.40;;;;;;5027314;28;20217;-66
2022/01/25 04:53:18;;;;;;;25.67;11.90;;;0.90;91.30;;;;;;5024885;28;20199;-66
2022/01/25 04:55:54;;;;;;;28.05;10.57;;;0.90;91.40;;;;;;5025518;28;20306;-66
2022/01/25 04:58:32;;;;;;;21.60;10.98;;;0.80;91.40;;;;;;5027512;28;20201;-67
2022/01/25 05:01:04;;;;;;;29.05;12.18;;;0.80;91.20;;;;;;5027423;28;20666;-66
2022/01/25 05:03:49;;;;;;;29.85;11.27;;;0.80;91.40;;;;;;5027344;28;20207;-66
2022/01/25 05:06:23;;;;;;;25.73;13.32;;;0.80;91.50;;;;;;5027799;28;20203;-66
2022/01/25 05:08:57;;;;;;;21.42;10.00;;;0.80;91.50;;;;;;5026620;28;20684;-68
2022/01/25 05:11:31;;;;;;;28.10;11.35;;;0.80;91.90;;;;;;5027335;28;20575;-66
2022/01/25 05:14:13;;;;;;;24.58;11.75;;;0.80;92.20;;;;;;5027006;28;20233;-66
2022/01/25 05:16:54;;;;;;;22.02;10.52;;;0.90;92.10;;;;;;5027557;28;20187;-66
2022/01/25 05:22:19;;;;;;;20.63;10.35;;;0.90;91.90;;;;;;5027302;28;20234;-66
2022/01/25 05:24:48;;;;;;;19.23;11.10;;;1.00;91.60;;;;;;5028543;28;20195;-68
2022/01/25 05:27:18;;;;;;;21.88;11.35;;;1.00;91.60;;;;;;5031369;28;20188;-66
2022/01/25 05:29:46;;;;;;;17.60;10.35;;;1.00;91.30;;;;;;5029213;28;20195;-66
2022/01/25 05:32:15;;;;;;;29.63;10.80;;;1.00;91.30;;;;;;5030914;28;20206;-66
2022/01/25 05:34:51;;;;;;;18.60;9.10;;;1.10;91.20;;;;;;5031311;28;20219;-66
2022/01/25 05:37:18;;;;;;;26.95;13.75;;;1.10;91.00;;;;;;5029494;28;20278;-66
2022/01/25 05:39:47;;;;;;;18.00;10.68;;;1.10;90.70;;;;;;5026456;28;20195;-67
2022/01/25 05:42:29;;;;;;;18.65;10.02;;;1.10;90.80;;;;;;5029258;28;20203;-67
2022/01/25 05:45:10;;;;;;;20.35;10.27;;;1.20;90.70;;;;;;5033681;28;20286;-66
2022/01/25 05:47:41;;;;;;;23.08;11.48;;;1.20;90.60;;;;;;5028394;28;20219;-66
2022/01/25 05:50:09;;;;;;;20.70;11.20;;;1.10;90.40;;;;;;5028390;28;20191;-67
2022/01/25 05:52:36;;;;;;;25.48;12.43;;;1.10;90.50;;;;;;5029120;28;20267;-68
2022/01/25 05:55:09;;;;;;;29.75;11.05;;;1.10;90.60;;;;;;5029467;28;20234;-66
2022/01/25 05:57:36;;;;;;;23.75;10.25;;;1.10;90.60;;;;;;5027852;28;20249;-66
2022/01/25 06:00:13;;;;;;;22.38;10.25;;;1.00;90.50;;;;;;5028411;28;20195;-66
2022/01/25 06:02:42;;;;;;;18.73;9.85;;;1.00;90.60;;;;;;5029009;28;20263;-66
2022/01/25 06:05:10;;;;;;;17.73;9.52;;;1.00;90.60;;;;;;5029472;28;20204;-66
2022/01/25 06:07:39;;;;;;;22.83;10.18;;;1.00;90.90;;;;;;5029708;28;20196;-66
2022/01/25 06:10:12;;;;;;;25.10;10.57;;;1.00;90.90;;;;;;5029191;28;20291;-66
2022/01/25 06:12:42;;;;;;;20.02;10.50;;;1.00;90.30;;;;;;5026247;28;20549;-66
2022/01/25 06:15:21;;;;;;;19.70;11.85;;;1.00;90.60;;;;;;5028897;28;20249;-66
2022/01/25 06:17:50;;;;;;;23.85;10.30;;;1.00;90.90;;;;;;5028888;28;20195;-67
2022/01/25 06:20:23;;;;;;;18.58;8.90;;;1.10;90.70;;;;;;5029237;28;20601;-67
2022/01/25 06:22:51;;;;;;;24.52;11.85;;;1.10;90.70;;;;;;5028033;28;20240;-66
2022/01/25 06:25:23;;;;;;;26.63;11.32;;;1.10;90.90;;;;;;5029162;28;20231;-66
2022/01/25 06:27:56;;;;;;;26.25;11.30;;;1.00;90.70;;;;;;5028971;28;20605;-67
2022/01/25 06:30:24;;;;;;;19.83;12.07;;;0.90;90.20;;;;;;5029022;28;20255;-67
2022/01/25 06:32:53;;;;;;;25.95;11.43;;;0.70;90.90;;;;;;5028200;28;20749;-66
2022/01/25 06:35:20;;;;;;;28.98;11.30;;;0.60;91.20;;;;;;5028179;28;20270;-67
2022/01/25 06:37:48;;;;;;;23.10;11.20;;;0.60;90.90;;;;;;5028242;28;20284;-66
2022/01/25 06:40:21;;;;;;;20.15;9.60;;;0.50;91.00;;;;;;5028784;28;20585;-67
2022/01/25 06:42:48;;;;;;;17.88;8.57;;;0.50;91.50;;;;;;5027718;28;20649;-69
2022/01/25 06:45:18;;;;;;;23.58;11.25;;;0.50;91.70;;;;;;5028235;28;20275;-66
2022/01/25 06:47:47;;;;;;;20.80;9.70;;;0.60;91.80;;;;;;5028576;28;20711;-66
2022/01/25 06:50:23;;;;;;;16.13;9.30;;;0.50;91.10;;;;;;5028829;28;20288;-67
2022/01/25 06:52:56;;;;;;;17.23;9.70;;;0.50;91.50;;;;;;5027206;28;20551;-66
2022/01/25 06:55:28;;;;;;;22.08;10.25;;;0.50;91.50;;;;;;5028750;28;20595;-67
2022/01/25 06:57:59;;;;;;;19.10;9.55;;;0.50;91.70;;;;;;5027769;28;20240;-66
2022/01/25 07:00:26;;;;;;;23.05;9.02;;;0.50;91.10;;;;;;5028375;28;20646;-66
2022/01/25 07:02:56;;;;;;;20.98;9.57;;;0.60;91.20;;;;;;5027982;28;20203;-66
2022/01/25 07:05:29;;;;;;;15.98;11.05;;;0.50;90.70;;;;;;5028222;28;20192;-66
2022/01/25 07:07:56;;;;;;;16.20;7.55;;;0.50;90.90;;;;;;5028113;28;20199;-66
2022/01/25 07:10:25;;;;;;;11.77;7.35;;;0.50;90.90;;;;;;5027425;28;20198;-66
2022/01/25 07:12:53;;;;;;;14.88;8.82;;;0.40;90.20;;;;;;5026409;28;20184;-67
2022/01/25 07:15:23;;;;;;;18.55;9.27;;;0.30;90.60;;;;;;5026385;28;20305;-67
2022/01/25 07:17:51;;;;;;;15.73;9.20;;;0.40;90.50;;;;;;5027575;28;20666;-67
2022/01/25 07:20:22;;;;;;;11.63;6.55;;;0.40;90.90;;;;;;5027556;28;20192;-66
2022/01/25 07:22:55;;;;;;;14.48;7.63;;;0.40;90.20;;;;;;5025884;28;20579;-66
2022/01/25 07:25:25;;;;;;;13.88;8.73;;;0.30;89.80;;;;;;5027923;28;20191;-66
2022/01/25 07:27:52;;;;;;;25.98;8.38;;;0.20;90.40;;;;;;5027842;28;20550;-66
2022/01/25 07:30:25;;;;;;;15.55;6.00;;;0.20;90.00;;;;;;5027252;28;20596;-66
2022/01/25 07:32:55;;;;;;;11.40;7.20;;;0.20;89.00;;;;;;5027700;28;20222;-66
2022/01/25 07:35:23;;;;;;;16.83;8.00;;;0.10;87.90;;;;;;5027144;28;20310;-66
2022/01/25 07:37:57;;;;;;;17.52;9.35;;;0.00;89.00;;;;;;5027508;28;20191;-66
2022/01/25 07:40:25;;;;;;;13.80;7.80;;;0.00;90.00;;;;;;5027005;28;20218;-66
2022/01/25 07:42:53;;;;;;;13.65;8.43;;;0.00;90.00;;;;;;5027289;28;20256;-66
2022/01/25 07:45:24;;;;;;;13.05;7.68;;;0.00;90.30;;;;;;5027041;28;20275;-67
2022/01/25 07:47:52;;;;;;;14.25;7.53;;;0.10;90.40;;;;;;5025521;28;20231;-66
2022/01/25 07:50:20;;;;;;;18.45;9.20;;;0.10;90.10;;;;;;5026676;28;20198;-66
2022/01/25 07:52:48;;;;;;;27.63;14.00;;;0.20;90.30;;;;;;5026740;28;20248;-66
2022/01/25 07:55:18;;;;;;;24.70;12.85;;;0.20;90.10;;;;;;5027623;28;20229;-66
2022/01/25 07:57:45;;;;;;;15.68;8.57;;;0.20;88.90;;;;;;5027201;28;20207;-66
2022/01/25 08:00:14;;;;;;;18.95;11.18;;;0.30;88.40;;;;;;5024180;28;20199;-66
2022/01/25 08:02:45;;;;;;;19.88;10.27;;;0.40;88.50;;;;;;5026978;28;20239;-66
2022/01/25 08:05:14;;;;;;;14.88;8.32;;;0.40;88.40;;;;;;5025228;28;20214;-66
2022/01/25 08:07:42;;;;;;;13.13;8.50;;;0.30;87.90;;;;;;5026881;28;20206;-66
2022/01/25 08:10:11;;;;;;;16.50;10.02;;;0.40;89.90;;;;;;5026728;28;20619;-66
2022/01/25 08:12:41;;;;;;;13.45;9.55;;;0.50;88.20;;;;;;5025883;28;20187;-66
2022/01/25 08:15:11;;;;;;;18.38;9.32;;;0.50;86.10;;;;;;5026497;28;20219;-66
2022/01/25 08:17:40;;;;;;;12.85;9.00;;;0.60;85.60;;;;;;5025919;28;20574;-66
2022/01/25 08:20:08;;;;;;;14.55;8.25;;;0.70;85.50;;;;;;5027803;28;20196;-66
2022/01/25 08:22:36;;;;;;;14.60;9.77;;;0.80;82.90;;;;;;5025357;28;20278;-66
2022/01/25 08:25:05;;;;;;;16.52;9.35;;;0.80;83.80;;;;;;5026685;28;20192;-66
2022/01/25 08:27:35;;;;;;;16.17;8.75;;;0.80;84.30;;;;;;5027224;28;20690;-66
2022/01/25 08:30:06;;;;;;;16.10;9.73;;;0.90;85.20;;;;;;5026036;28;20208;-66
2022/01/25 08:32:36;;;;;;;13.25;8.65;;;0.90;84.10;;;;;;5026779;28;20195;-66
2022/01/25 08:35:04;;;;;;;14.02;8.40;;;1.00;82.30;;;;;;5026531;28;20223;-66
2022/01/25 08:37:34;;;;;;;12.85;8.15;;;1.10;80.80;;;;;;5026653;28;20216;-66
2022/01/25 08:40:03;;;;;;;13.95;7.82;;;1.20;83.10;;;;;;5025904;28;20197;-66
2022/01/25 08:42:30;;;;;;;14.98;9.90;;;1.40;84.50;;;;;;5026146;28;20192;-66
2022/01/25 08:44:59;;;;;;;13.05;8.55;;;1.60;83.80;;;;;;5026545;28;20200;-66
2022/01/25 08:47:28;;;;;;;18.67;10.68;;;1.70;81.40;;;;;;5026343;28;20215;-66
2022/01/25 08:49:56;;;;;;;12.75;7.75;;;1.80;80.70;;;;;;5027203;28;20268;-66
2022/01/25 08:52:24;;;;;;;15.68;10.13;;;1.90;81.40;;;;;;5024483;28;20646;-66
2022/01/25 08:54:53;;;;;;;14.50;8.93;;;2.00;79.80;;;;;;5026449;28;20256;-66
2022/01/25 08:57:21;;;;;;;17.10;10.98;;;2.10;81.30;;;;;;5026242;28;20192;-67
2022/01/25 08:59:48;;;;;;;15.45;9.20;;;2.20;81.00;;;;;;5026375;28;20202;-66
2022/01/25 09:02:16;;;;;;;15.43;9.40;;;2.40;80.50;;;;;;5025112;28;20203;-67
2022/01/25 09:04:46;;;;;;;14.20;9.80;;;2.60;81.10;;;;;;5026747;28;20558;-66
2022/01/25 09:07:14;;;;;;;13.30;9.60;;;2.70;79.70;;;;;;5025492;28;20279;-66
2022/01/25 09:09:42;;;;;;;15.80;10.02;;;2.80;80.30;;;;;;5026966;28;20199;-66
2022/01/25 09:12:11;;;;;;;16.60;10.23;;;3.10;80.80;;;;;;5025207;28;20198;-66
2022/01/25 09:14:38;;;;;;;14.07;9.20;;;3.30;80.00;;;;;;5026403;28;20192;-66
2022/01/25 09:17:09;;;;;;;13.50;9.23;;;3.50;78.10;;;;;;5025716;28;20238;-68
2022/01/25 09:19:38;;;;;;;13.75;9.63;;;3.60;77.30;;;;;;5026021;28;20245;-66
2022/01/25 09:22:12;;;;;;;15.50;10.23;;;3.70;77.10;;;;;;5026216;28;20283;-67
2022/01/25 09:24:40;;;;;;;17.55;9.90;;;4.00;77.50;;;;;;5026116;28;20281;-66
2022/01/25 09:27:10;;;;;;;14.23;9.15;;;4.40;75.30;;;;;;5026087;28;20628;-67
2022/01/25 09:29:37;;;;;;;17.05;10.10;;;4.60;75.40;;;;;;5025978;28;20613;-66
2022/01/25 09:32:08;;;;;;;14.05;9.20;;;4.90;73.50;;;;;;5026251;28;20199;-67
2022/01/25 09:34:36;;;;;;;20.42;10.73;;;5.10;71.30;;;;;;5025596;28;20314;-67
2022/01/25 09:37:08;;;;;;;14.80;10.00;;;5.60;70.30;;;;;;5025752;28;20223;-67
2022/01/25 09:39:37;;;;;;;12.38;9.45;;;6.70;69.20;;;;;;5026215;28;20291;-66
2022/01/25 09:42:08;;;;;;;12.90;8.93;;;8.00;66.50;;;;;;5025645;28;20205;-67
2022/01/25 09:44:38;;;;;;;15.52;9.77;;;9.00;59.60;;;;;;5026585;28;20211;-66
2022/01/25 09:47:06;;;;;;;14.68;9.05;;;9.30;58.60;;;;;;5025458;28;20620;-67
2022/01/25 09:49:34;;;;;;;13.77;9.25;;;9.50;58.30;;;;;;5026027;28;20235;-68
2022/01/25 09:52:04;;;;;;;13.50;8.85;;;10.40;57.00;;;;;;5026019;28;20681;-67
2022/01/25 09:54:33;;;;;;;12.55;9.27;;;11.00;54.20;;;;;;5026525;28;20284;-67
2022/01/25 09:57:06;;;;;;;12.85;9.38;;;11.50;52.50;;;;;;5026160;28;20222;-67
2022/01/25 09:59:34;;;;;;;11.70;8.95;;;12.30;51.60;;;;;;5025550;28;20282;-67
2022/01/25 10:02:02;;;;;;;15.02;10.27;;;12.80;46.70;;;;;;5026313;28;21149;-67
2022/01/25 10:04:39;;;;;;;11.75;8.77;;;12.30;46.10;;;;;;5025566;28;20192;-67
2022/01/25 10:07:08;;;;;;;10.55;8.55;;;11.70;45.70;;;;;;5026333;28;20204;-67
2022/01/25 10:09:40;;;;;;;9.77;7.60;;;11.40;45.60;;;;;;5026156;28;20755;-67
2022/01/25 10:12:20;;;;;;;12.82;8.57;;;11.30;46.70;;;;;;5028865;28;20217;-67
2022/01/25 10:15:10;;;;;;;11.10;9.30;;;11.70;46.40;;;;;;5027383;28;20645;-67
2022/01/25 10:17:41;;;;;;;11.13;8.07;;;12.50;46.60;;;;;;5029759;28;20613;-68
2022/01/25 10:20:26;;;;;;;12.02;8.70;;;13.50;45.60;;;;;;5029088;28;20220;-68
2022/01/25 10:22:59;;;;;;;12.30;9.18;;;14.30;41.30;;;;;;5027054;28;20245;-67
2022/01/25 10:25:36;;;;;;;11.80;8.32;;;14.90;40.90;;;;;;5028138;28;20592;-67
2022/01/25 10:28:12;;;;;;;10.33;8.00;;;15.40;41.10;;;;;;5029631;28;20203;-67
2022/01/25 10:30:47;;;;;;;10.20;8.30;;;15.90;37.30;;;;;;5029170;28;20446;-67
2022/01/25 10:33:32;;;;;;;9.70;8.13;;;16.40;36.80;;;;;;5026192;28;20476;-69
2022/01/25 10:36:02;;;;;;;10.80;7.40;;;16.70;35.70;;;;;;5027739;28;20581;-67
2022/01/25 10:38:32;;;;;;;11.53;9.20;;;16.80;35.30;;;;;;5029081;28;20853;-67
2022/01/25 10:41:05;;;;;;;10.90;8.80;;;16.70;34.20;;;;;;5029204;28;20924;-68
2022/01/25 10:43:36;;;;;;;10.10;8.50;;;16.80;36.10;;;;;;5028408;28;20466;-67
2022/01/25 10:46:17;;;;;;;11.10;8.73;;;17.20;35.80;;;;;;5029153;28;20476;-67
2022/01/25 10:48:50;;;;;;;11.00;9.70;;;17.70;34.60;;;;;;5025720;28;20446;-67
2022/01/25 10:51:22;;;;;;;11.60;7.93;;;17.90;32.50;;;;;;5029883;28;20455;-67
2022/01/25 10:54:12;;;;;;;13.00;9.20;;;18.00;34.10;;;;;;5026397;28;20438;-67
2022/01/25 10:56:44;;;;;;;12.20;8.40;;;18.40;32.40;;;;;;5027734;28;20482;-67
2022/01/25 10:59:16;;;;;;;13.60;10.17;;;18.50;31.60;;;;;;5028613;28;20481;-67
2022/01/25 11:01:49;;;;;;;12.77;10.10;;;19.00;30.30;;;;;;5028485;28;20486;-68
2022/01/25 11:04:23;;;;;;;12.77;10.50;;;19.50;30.90;;;;;;5029170;28;20454;-67
2022/01/25 11:06:56;;;;;;;10.67;8.10;;;20.00;30.30;;;;;;5026952;28;20524;-68
2022/01/25 11:09:26;;;;;;;11.23;8.93;;;20.40;30.00;;;;;;5025686;28;20520;-68
2022/01/25 11:12:05;;;;;;;11.63;7.73;;;21.20;30.20;;;;;;5029471;28;20474;-67
2022/01/25 11:14:53;;;;;;;11.40;9.30;;;22.00;28.90;;;;;;5029480;28;20426;-68
2022/01/25 11:17:22;;;;;;;11.63;8.90;;;22.60;29.00;;;;;;5027646;28;20480;-68
2022/01/25 11:19:50;;;;;;;13.60;9.17;;;23.20;27.90;;;;;;5029601;28;20449;-67
2022/01/25 11:22:20;;;;;;;13.03;7.63;;;23.30;26.10;;;;;;5029067;28;20485;-67
2022/01/25 11:24:51;;;;;;;8.97;7.50;;;22.90;27.60;;;;;;5028973;28;20435;-68
2022/01/25 11:27:20;;;;;;;8.70;7.80;;;23.50;27.20;;;;;;5029528;28;20521;-68
2022/01/25 11:29:55;;;;;;;8.90;6.60;;;23.80;26.70;;;;;;5029042;28;20525;-68
2022/01/25 11:32:37;;;;;;;7.57;6.80;;;23.90;25.60;;;;;;5028856;28;20448;-67
2022/01/25 11:35:26;;;;;;;8.60;7.13;;;23.80;25.90;;;;;;5028659;28;20979;-67
2022/01/25 11:37:54;;;;;;;9.40;8.27;;;24.00;26.80;;;;;;5029530;28;20839;-68
2022/01/25 11:40:27;;;;;;;11.07;8.80;;;24.50;25.70;;;;;;5029333;28;20438;-69
2022/01/25 11:42:57;;;;;;;13.00;9.47;;;24.80;26.10;;;;;;5026097;28;20530;-67
2022/01/25 11:45:31;;;;;;;9.27;7.83;;;25.50;25.30;;;;;;5028827;28;20430;-67
2022/01/25 11:48:03;;;;;;;9.27;6.90;;;26.30;25.00;;;;;;5024909;28;20430;-67
2022/01/25 11:50:37;;;;;;;8.30;6.23;;;26.70;24.70;;;;;;5029653;28;20442;-68
2022/01/25 11:53:08;;;;;;;10.07;7.10;;;27.10;23.90;;;;;;5025999;28;20438;-68
2022/01/25 11:55:41;;;;;;;7.27;6.07;;;27.50;23.20;;;;;;5029073;28;20446;-67
2022/01/25 11:58:10;;;;;;;6.97;5.80;;;27.60;23.10;;;;;;5029047;28;20433;-68
2022/01/25 12:00:45;;;;;;;7.20;6.33;;;27.70;21.50;;;;;;5028247;28;20518;-68
2022/01/25 12:03:31;;;;;;;9.57;5.90;;;27.60;22.30;;;;;;5029212;28;20929;-68
2022/01/25 12:06:06;;;;;;;8.60;6.80;;;28.00;22.20;;;;;;5024924;28;20426;-68
2022/01/25 12:08:48;;;;;;;7.13;6.00;;;28.30;21.90;;;;;;5028723;28;20848;-68
2022/01/25 12:11:38;;;;;;;6.93;5.30;;;28.10;21.20;;;;;;5028119;28;20445;-69
2022/01/25 12:14:14;;;;;;;7.10;5.30;;;27.90;21.20;;;;;;5028555;28;20470;-68
2022/01/25 12:16:44;;;;;;;8.20;6.27;;;27.60;21.70;;;;;;5027415;28;20523;-68
2022/01/25 12:19:13;;;;;;;7.17;5.60;;;27.30;21.50;;;;;;5028803;28;20438;-68
2022/01/25 12:21:55;;;;;;;7.73;6.43;;;27.20;22.30;;;;;;5027939;28;20443;-68
2022/01/25 12:24:38;;;;;;;7.90;6.00;;;26.90;22.40;;;;;;5026809;28;20438;-68
2022/01/25 12:27:15;;;;;;;7.33;6.33;;;26.30;22.80;;;;;;5027902;28;20438;-68
2022/01/25 12:29:43;;;;;;;7.30;5.97;;;26.30;23.00;;;;;;5024423;28;20541;-69
2022/01/25 12:32:28;;;;;;;5.60;4.80;;;26.40;22.80;;;;;;5027064;28;20439;-68
2022/01/25 12:35:00;;;;;;;8.27;5.80;;;26.80;22.90;;;;;;5024925;28;20438;-68
2022/01/25 12:37:55;;;;;;;7.20;5.33;;;27.10;22.50;;;;;;5027380;28;20542;-68
2022/01/25 12:40:57;;;;;;;6.20;4.80;;;26.70;22.60;;;;;;5031770;28;20469;-68
2022/01/25 12:43:27;;;;;;;5.30;4.50;;;26.00;22.90;;;;;;5021395;28;20446;-70
2022/01/25 12:46:00;;;;;;;5.70;4.70;;;25.90;23.50;;;;;;5027861;28;20489;-68
2022/01/25 12:48:31;;;;;;;6.53;5.00;;;25.70;23.00;;;;;;5028547;28;20457;-68
2022/01/25 12:51:02;;;;;;;5.37;3.40;;;25.50;23.40;;;;;;5027781;28;20485;-68
2022/01/25 12:53:32;;;;;;;4.87;3.47;;;25.60;23.30;;;;;;5028001;28;20442;-68
2022/01/25 12:56:02;;;;;;;7.07;4.43;;;25.30;23.40;;;;;;5023633;28;20461;-68
2022/01/25 12:58:32;;;;;;;5.37;4.67;;;25.20;24.00;;;;;;5027539;28;20438;-68
2022/01/25 13:01:05;;;;;;;6.73;4.63;;;25.10;24.30;;;;;;5027339;28;20434;-69
2022/01/25 13:03:36;;;;;;;5.33;4.00;;;25.40;24.70;;;;;;5024117;28;20434;-68
2022/01/25 13:06:10;;;;;;;6.57;4.97;;;25.30;24.20;;;;;;5028058;28;20456;-68
2022/01/25 13:08:44;;;;;;;6.37;5.10;;;25.00;24.30;;;;;;5027747;28;20950;-68
2022/01/25 13:11:38;;;;;;;5.80;4.80;;;24.70;24.50;;;;;;5027824;28;20939;-68
2022/01/25 13:14:33;;;;;;;8.90;4.50;;;24.00;25.10;;;;;;5027425;28;20433;-68
2022/01/25 13:17:03;;;;;;;5.73;4.60;;;23.60;25.70;;;;;;5028205;28;20563;-68
2022/01/25 13:19:37;;;;;;;5.67;4.93;;;22.90;26.00;;;;;;5027602;28;20446;-68
2022/01/25 13:22:12;;;;;;;6.17;3.80;;;22.50;27.30;;;;;;5028015;28;20495;-68
2022/01/25 13:24:47;;;;;;;9.13;3.47;;;21.90;26.90;;;;;;5027096;28;20444;-68
2022/01/25 13:27:17;;;;;;;5.13;3.63;;;21.40;27.20;;;;;;5027497;28;20814;-68
2022/01/25 13:32:38;;;;;;;5.47;4.40;;;20.40;27.70;;;;;;5026332;28;20548;-68
2022/01/25 13:35:19;;;;;;;8.07;5.00;;;19.50;29.10;;;;;;5023571;28;20943;-68
2022/01/25 13:38:01;;;;;;;7.67;4.47;;;19.10;29.40;;;;;;5027488;28;20508;-68
2022/01/25 13:40:36;;;;;;;5.60;4.33;;;18.60;30.40;;;;;;5027708;28;20533;-68
2022/01/25 13:43:31;;;;;;;4.87;3.50;;;18.20;31.20;;;;;;5027182;28;20812;-68
2022/01/25 13:46:00;;;;;;;4.40;3.63;;;17.90;32.10;;;;;;5028463;28;20474;-68
2022/01/25 13:48:29;;;;;;;7.03;4.20;;;17.80;31.90;;;;;;5029674;28;20470;-68
2022/01/25 13:51:00;;;;;;;4.23;3.10;;;17.60;31.90;;;;;;5032987;28;20442;-68
2022/01/25 13:53:29;;;;;;;5.90;3.30;;;17.60;32.40;;;;;;5030291;28;20449;-68
2022/01/25 13:55:58;;;;;;;5.13;3.43;;;17.50;31.90;;;;;;5030198;28;20474;-67
2022/01/25 13:58:27;;;;;;;7.97;6.00;;;17.30;32.50;;;;;;5030639;28;20568;-68
2022/01/25 14:00:56;;;;;;;9.10;6.53;;;17.20;33.20;;;;;;5029878;28;20526;-68
2022/01/25 14:03:40;;;;;;;10.30;7.70;;;17.10;34.70;;;;;;5030950;28;20496;-67
2022/01/25 14:06:23;;;;;;;11.27;7.60;;;16.80;35.70;;;;;;5029773;28;20437;-68
2022/01/25 14:08:52;;;;;;;13.20;8.40;;;16.40;36.30;;;;;;5030718;28;20446;-67
2022/01/25 14:11:26;;;;;;;12.27;7.40;;;16.20;37.20;;;;;;5029937;28;20442;-67
2022/01/25 14:22:35;;;;;;;8.53;6.73;;;15.40;38.60;;;;;;5030551;28;20490;-67
2022/01/25 14:25:03;;;;;;;11.43;8.70;;;15.20;38.80;;;;;;5029610;28;20985;-69
2022/01/25 14:27:39;;;;;;;10.73;7.30;;;15.00;39.10;;;;;;5029792;28;20524;-68